sensor_id;sensor_type;location;lat;lon;timestamp;temperature;humidity
64062;DHT22;50308;47.438;-1.528;2022-08-19T00:00:19;22.20;67.80
64062;DHT22;50308;47.438;-1.528;2022-08-19T00:02:45;22.20;67.80
64062;DHT22;50308;47.438;-1.528;2022-08-19T00:05:13;22.20;67.90
64062;DHT22;50308;47.438;-1.528;2022-08-19T00:07:41;22.20;68.30
64062;DHT22;50308;47.438;-1.528;2022-08-19T00:10:09;22.10;68.30
64062;DHT22;50308;47.438;-1.528;2022-08-19T00:12:37;22.10;68.30
64062;DHT22;50308;47.438;-1.528;2022-08-19T00:15:05;22.10;68.60
64062;DHT22;50308;47.438;-1.528;2022-08-19T00:17:31;22.10;68.50
64062;DHT22;50308;47.438;-1.528;2022-08-19T00:19:57;22.10;68.60
64062;DHT22;50308;47.438;-1.528;2022-08-19T00:22:23;22.10;68.50
64062;DHT22;50308;47.438;-1.528;2022-08-19T00:24:49;22.10;68.70
64062;DHT22;50308;47.438;-1.528;2022-08-19T00:27:14;22.00;69.20
64062;DHT22;50308;47.438;-1.528;2022-08-19T00:29:40;22.00;69.60
64062;DHT22;50308;47.438;-1.528;2022-08-19T00:32:06;22.00;69.60
64062;DHT22;50308;47.438;-1.528;2022-08-19T00:34:32;21.90;69.80
64062;DHT22;50308;47.438;-1.528;2022-08-19T00:36:58;22.00;70.20
64062;DHT22;50308;47.438;-1.528;2022-08-19T00:39:25;22.00;70.10
64062;DHT22;50308;47.438;-1.528;2022-08-19T00:41:51;22.00;70.10
64062;DHT22;50308;47.438;-1.528;2022-08-19T00:44:25;21.90;70.40
64062;DHT22;50308;47.438;-1.528;2022-08-19T00:46:52;21.90;70.60
64062;DHT22;50308;47.438;-1.528;2022-08-19T00:49:49;22.00;70.90
64062;DHT22;50308;47.438;-1.528;2022-08-19T00:52:33;22.00;70.70
64062;DHT22;50308;47.438;-1.528;2022-08-19T00:55:00;22.00;70.50
64062;DHT22;50308;47.438;-1.528;2022-08-19T00:57:34;22.00;70.70
64062;DHT22;50308;47.438;-1.528;2022-08-19T01:00:04;22.00;70.80
64062;DHT22;50308;47.438;-1.528;2022-08-19T01:02:31;22.00;71.10
64062;DHT22;50308;47.438;-1.528;2022-08-19T01:05:00;21.90;71.50
64062;DHT22;50308;47.438;-1.528;2022-08-19T01:07:26;22.00;71.10
64062;DHT22;50308;47.438;-1.528;2022-08-19T01:09:53;22.00;71.20
64062;DHT22;50308;47.438;-1.528;2022-08-19T01:12:19;22.10;71.10
64062;DHT22;50308;47.438;-1.528;2022-08-19T01:14:45;22.10;71.10
64062;DHT22;50308;47.438;-1.528;2022-08-19T01:17:12;22.00;71.40
64062;DHT22;50308;47.438;-1.528;2022-08-19T01:19:41;22.00;71.30
64062;DHT22;50308;47.438;-1.528;2022-08-19T01:24:48;22.10;71.30
64062;DHT22;50308;47.438;-1.528;2022-08-19T01:27:14;22.00;71.50
64062;DHT22;50308;47.438;-1.528;2022-08-19T01:29:41;22.00;71.50
64062;DHT22;50308;47.438;-1.528;2022-08-19T01:32:12;22.00;71.20
64062;DHT22;50308;47.438;-1.528;2022-08-19T01:34:38;22.00;71.60
64062;DHT22;50308;47.438;-1.528;2022-08-19T01:37:09;22.00;71.90
64062;DHT22;50308;47.438;-1.528;2022-08-19T01:39:40;22.00;71.70
64062;DHT22;50308;47.438;-1.528;2022-08-19T01:42:07;22.00;71.70
64062;DHT22;50308;47.438;-1.528;2022-08-19T01:44:37;22.10;71.60
64062;DHT22;50308;47.438;-1.528;2022-08-19T01:47:03;22.00;71.60
64062;DHT22;50308;47.438;-1.528;2022-08-19T01:49:29;22.00;71.70
64062;DHT22;50308;47.438;-1.528;2022-08-19T01:51:55;22.00;71.80
64062;DHT22;50308;47.438;-1.528;2022-08-19T01:54:23;22.10;71.90
64062;DHT22;50308;47.438;-1.528;2022-08-19T01:56:51;22.10;71.70
64062;DHT22;50308;47.438;-1.528;2022-08-19T01:59:20;22.10;71.50
64062;DHT22;50308;47.438;-1.528;2022-08-19T02:01:47;22.10;71.40
64062;DHT22;50308;47.438;-1.528;2022-08-19T02:04:12;22.20;71.40
64062;DHT22;50308;47.438;-1.528;2022-08-19T02:06:40;22.10;71.30
64062;DHT22;50308;47.438;-1.528;2022-08-19T02:09:07;22.20;71.50
64062;DHT22;50308;47.438;-1.528;2022-08-19T02:11:34;22.20;71.40
64062;DHT22;50308;47.438;-1.528;2022-08-19T02:14:03;22.20;71.70
64062;DHT22;50308;47.438;-1.528;2022-08-19T02:16:29;22.20;71.40
64062;DHT22;50308;47.438;-1.528;2022-08-19T02:18:56;22.20;71.60
64062;DHT22;50308;47.438;-1.528;2022-08-19T02:21:23;22.20;71.70
64062;DHT22;50308;47.438;-1.528;2022-08-19T02:23:49;22.20;71.70
64062;DHT22;50308;47.438;-1.528;2022-08-19T02:26:16;22.20;72.00
64062;DHT22;50308;47.438;-1.528;2022-08-19T02:28:42;22.20;72.00
64062;DHT22;50308;47.438;-1.528;2022-08-19T02:31:13;22.20;71.70
64062;DHT22;50308;47.438;-1.528;2022-08-19T02:33:43;22.30;71.60
64062;DHT22;50308;47.438;-1.528;2022-08-19T02:36:11;22.20;71.80
64062;DHT22;50308;47.438;-1.528;2022-08-19T02:38:39;22.20;71.90
64062;DHT22;50308;47.438;-1.528;2022-08-19T02:41:14;22.30;71.90
64062;DHT22;50308;47.438;-1.528;2022-08-19T02:43:41;22.20;71.80
64062;DHT22;50308;47.438;-1.528;2022-08-19T02:46:29;22.30;72.00
64062;DHT22;50308;47.438;-1.528;2022-08-19T02:48:59;22.30;72.10
64062;DHT22;50308;47.438;-1.528;2022-08-19T02:51:29;22.30;73.30
64062;DHT22;50308;47.438;-1.528;2022-08-19T02:53:56;22.30;72.30
64062;DHT22;50308;47.438;-1.528;2022-08-19T02:56:22;22.30;72.20
64062;DHT22;50308;47.438;-1.528;2022-08-19T02:58:50;22.30;72.10
64062;DHT22;50308;47.438;-1.528;2022-08-19T03:01:24;22.30;72.60
64062;DHT22;50308;47.438;-1.528;2022-08-19T03:03:50;22.30;73.50
64062;DHT22;50308;47.438;-1.528;2022-08-19T03:06:17;22.30;72.50
64062;DHT22;50308;47.438;-1.528;2022-08-19T03:08:44;22.30;72.10
64062;DHT22;50308;47.438;-1.528;2022-08-19T03:11:15;22.30;72.50
64062;DHT22;50308;47.438;-1.528;2022-08-19T03:13:41;22.30;72.60
64062;DHT22;50308;47.438;-1.528;2022-08-19T03:16:08;22.30;72.30
64062;DHT22;50308;47.438;-1.528;2022-08-19T03:18:34;22.30;72.50
64062;DHT22;50308;47.438;-1.528;2022-08-19T03:21:00;22.30;72.80
64062;DHT22;50308;47.438;-1.528;2022-08-19T03:23:26;22.30;72.70
64062;DHT22;50308;47.438;-1.528;2022-08-19T03:25:52;22.30;72.70
64062;DHT22;50308;47.438;-1.528;2022-08-19T03:28:19;22.30;72.60
64062;DHT22;50308;47.438;-1.528;2022-08-19T03:31:06;22.40;72.60
64062;DHT22;50308;47.438;-1.528;2022-08-19T03:33:33;22.30;72.60
64062;DHT22;50308;47.438;-1.528;2022-08-19T03:36:16;22.30;72.90
64062;DHT22;50308;47.438;-1.528;2022-08-19T03:38:44;22.30;73.10
64062;DHT22;50308;47.438;-1.528;2022-08-19T03:41:13;22.30;73.00
64062;DHT22;50308;47.438;-1.528;2022-08-19T03:43:42;22.30;72.90
64062;DHT22;50308;47.438;-1.528;2022-08-19T03:46:11;22.40;72.90
64062;DHT22;50308;47.438;-1.528;2022-08-19T03:48:37;22.40;72.60
64062;DHT22;50308;47.438;-1.528;2022-08-19T03:51:04;22.40;72.70
64062;DHT22;50308;47.438;-1.528;2022-08-19T03:53:32;22.40;72.70
64062;DHT22;50308;47.438;-1.528;2022-08-19T03:55:58;22.30;72.80
64062;DHT22;50308;47.438;-1.528;2022-08-19T03:58:28;22.30;73.00
64062;DHT22;50308;47.438;-1.528;2022-08-19T04:00:55;22.30;73.20
64062;DHT22;50308;47.438;-1.528;2022-08-19T04:03:22;22.30;73.10
64062;DHT22;50308;47.438;-1.528;2022-08-19T04:05:48;22.30;72.90
64062;DHT22;50308;47.438;-1.528;2022-08-19T04:08:14;22.40;72.90
64062;DHT22;50308;47.438;-1.528;2022-08-19T04:10:43;22.40;72.90
64062;DHT22;50308;47.438;-1.528;2022-08-19T04:13:09;22.40;73.30
64062;DHT22;50308;47.438;-1.528;2022-08-19T04:15:40;22.40;73.00
64062;DHT22;50308;47.438;-1.528;2022-08-19T04:18:08;22.40;73.20
64062;DHT22;50308;47.438;-1.528;2022-08-19T04:20:45;22.40;73.00
64062;DHT22;50308;47.438;-1.528;2022-08-19T04:23:12;22.40;73.10
64062;DHT22;50308;47.438;-1.528;2022-08-19T04:25:40;22.40;73.20
64062;DHT22;50308;47.438;-1.528;2022-08-19T04:28:08;22.40;73.00
64062;DHT22;50308;47.438;-1.528;2022-08-19T04:30:40;22.40;73.00
64062;DHT22;50308;47.438;-1.528;2022-08-19T04:33:06;22.40;73.10
64062;DHT22;50308;47.438;-1.528;2022-08-19T04:35:37;22.40;73.00
64062;DHT22;50308;47.438;-1.528;2022-08-19T04:38:03;22.40;73.30
64062;DHT22;50308;47.438;-1.528;2022-08-19T04:40:29;22.30;73.20
64062;DHT22;50308;47.438;-1.528;2022-08-19T04:43:14;22.40;73.00
64062;DHT22;50308;47.438;-1.528;2022-08-19T04:45:44;22.40;72.90
64062;DHT22;50308;47.438;-1.528;2022-08-19T04:48:11;22.40;72.90
64062;DHT22;50308;47.438;-1.528;2022-08-19T04:50:40;22.30;72.70
64062;DHT22;50308;47.438;-1.528;2022-08-19T04:53:07;22.40;72.70
64062;DHT22;50308;47.438;-1.528;2022-08-19T04:55:33;22.30;72.50
64062;DHT22;50308;47.438;-1.528;2022-08-19T04:58:01;22.40;72.50
64062;DHT22;50308;47.438;-1.528;2022-08-19T05:00:27;22.40;72.60
64062;DHT22;50308;47.438;-1.528;2022-08-19T05:02:53;22.30;72.70
64062;DHT22;50308;47.438;-1.528;2022-08-19T05:05:19;22.30;74.00
64062;DHT22;50308;47.438;-1.528;2022-08-19T05:07:45;22.30;72.90
64062;DHT22;50308;47.438;-1.528;2022-08-19T05:10:10;22.30;72.90
64062;DHT22;50308;47.438;-1.528;2022-08-19T05:12:37;22.30;73.00
64062;DHT22;50308;47.438;-1.528;2022-08-19T05:15:04;22.30;72.90
64062;DHT22;50308;47.438;-1.528;2022-08-19T05:17:31;22.30;72.90
64062;DHT22;50308;47.438;-1.528;2022-08-19T05:19:57;22.30;73.10
64062;DHT22;50308;47.438;-1.528;2022-08-19T05:22:44;22.30;73.00
64062;DHT22;50308;47.438;-1.528;2022-08-19T05:25:13;22.20;73.20
64062;DHT22;50308;47.438;-1.528;2022-08-19T05:27:41;22.30;73.10
64062;DHT22;50308;47.438;-1.528;2022-08-19T05:30:08;22.20;73.20
64062;DHT22;50308;47.438;-1.528;2022-08-19T05:32:34;22.20;73.20
64062;DHT22;50308;47.438;-1.528;2022-08-19T05:35:00;22.30;73.20
64062;DHT22;50308;47.438;-1.528;2022-08-19T05:37:25;22.20;73.30
64062;DHT22;50308;47.438;-1.528;2022-08-19T05:39:53;22.20;73.20
64062;DHT22;50308;47.438;-1.528;2022-08-19T05:42:20;22.20;73.30
64062;DHT22;50308;47.438;-1.528;2022-08-19T05:44:48;22.20;73.60
64062;DHT22;50308;47.438;-1.528;2022-08-19T05:47:15;22.20;74.00
64062;DHT22;50308;47.438;-1.528;2022-08-19T05:49:41;22.20;74.10
64062;DHT22;50308;47.438;-1.528;2022-08-19T05:52:11;22.20;74.10
64062;DHT22;50308;47.438;-1.528;2022-08-19T05:54:40;22.10;74.50
64062;DHT22;50308;47.438;-1.528;2022-08-19T05:57:07;22.10;74.40
64062;DHT22;50308;47.438;-1.528;2022-08-19T05:59:33;22.20;74.50
64062;DHT22;50308;47.438;-1.528;2022-08-19T06:02:01;22.20;74.50
64062;DHT22;50308;47.438;-1.528;2022-08-19T06:04:26;22.20;74.40
64062;DHT22;50308;47.438;-1.528;2022-08-19T06:06:53;22.20;74.30
64062;DHT22;50308;47.438;-1.528;2022-08-19T06:09:20;22.20;74.30
64062;DHT22;50308;47.438;-1.528;2022-08-19T06:11:50;22.20;74.50
64062;DHT22;50308;47.438;-1.528;2022-08-19T06:14:21;22.20;74.30
64062;DHT22;50308;47.438;-1.528;2022-08-19T06:16:48;22.20;74.50
64062;DHT22;50308;47.438;-1.528;2022-08-19T06:19:18;22.20;74.50
64062;DHT22;50308;47.438;-1.528;2022-08-19T06:21:46;22.20;74.30
64062;DHT22;50308;47.438;-1.528;2022-08-19T06:24:16;22.30;74.20
64062;DHT22;50308;47.438;-1.528;2022-08-19T06:26:47;22.30;74.10
64062;DHT22;50308;47.438;-1.528;2022-08-19T06:29:15;22.30;74.30
64062;DHT22;50308;47.438;-1.528;2022-08-19T06:31:48;22.30;74.30
64062;DHT22;50308;47.438;-1.528;2022-08-19T06:34:18;22.30;74.10
64062;DHT22;50308;47.438;-1.528;2022-08-19T06:36:47;22.30;74.70
64062;DHT22;50308;47.438;-1.528;2022-08-19T06:39:16;22.30;74.50
64062;DHT22;50308;47.438;-1.528;2022-08-19T06:41:46;22.30;75.00
64062;DHT22;50308;47.438;-1.528;2022-08-19T06:44:12;22.20;74.60
64062;DHT22;50308;47.438;-1.528;2022-08-19T06:46:40;22.30;74.60
64062;DHT22;50308;47.438;-1.528;2022-08-19T06:49:06;22.20;74.70
64062;DHT22;50308;47.438;-1.528;2022-08-19T06:51:34;22.40;74.50
64062;DHT22;50308;47.438;-1.528;2022-08-19T06:54:00;22.40;75.00
64062;DHT22;50308;47.438;-1.528;2022-08-19T06:56:28;22.40;75.30
64062;DHT22;50308;47.438;-1.528;2022-08-19T06:59:03;22.40;75.30
64062;DHT22;50308;47.438;-1.528;2022-08-19T07:01:33;22.40;75.60
64062;DHT22;50308;47.438;-1.528;2022-08-19T07:03:59;22.30;75.50
64062;DHT22;50308;47.438;-1.528;2022-08-19T07:06:26;22.40;75.50
64062;DHT22;50308;47.438;-1.528;2022-08-19T07:08:52;22.40;75.50
64062;DHT22;50308;47.438;-1.528;2022-08-19T07:11:18;22.40;75.40
64062;DHT22;50308;47.438;-1.528;2022-08-19T07:13:45;22.40;75.40
64062;DHT22;50308;47.438;-1.528;2022-08-19T07:16:16;22.40;75.50
64062;DHT22;50308;47.438;-1.528;2022-08-19T07:18:43;22.40;75.70
64062;DHT22;50308;47.438;-1.528;2022-08-19T07:21:18;22.40;75.60
64062;DHT22;50308;47.438;-1.528;2022-08-19T07:23:44;22.50;75.60
64062;DHT22;50308;47.438;-1.528;2022-08-19T07:26:15;22.50;76.20
64062;DHT22;50308;47.438;-1.528;2022-08-19T07:28:42;22.50;75.80
64062;DHT22;50308;47.438;-1.528;2022-08-19T07:31:11;22.50;76.00
64062;DHT22;50308;47.438;-1.528;2022-08-19T07:33:39;22.50;75.90
64062;DHT22;50308;47.438;-1.528;2022-08-19T07:36:06;22.40;76.00
64062;DHT22;50308;47.438;-1.528;2022-08-19T07:38:33;22.50;75.70
64062;DHT22;50308;47.438;-1.528;2022-08-19T07:41:00;22.50;76.20
64062;DHT22;50308;47.438;-1.528;2022-08-19T07:43:26;22.50;75.80
64062;DHT22;50308;47.438;-1.528;2022-08-19T07:45:54;22.50;75.90
64062;DHT22;50308;47.438;-1.528;2022-08-19T07:48:26;22.50;76.00
64062;DHT22;50308;47.438;-1.528;2022-08-19T07:50:58;22.50;75.80
64062;DHT22;50308;47.438;-1.528;2022-08-19T07:53:25;22.50;76.20
64062;DHT22;50308;47.438;-1.528;2022-08-19T07:55:51;22.50;76.30
64062;DHT22;50308;47.438;-1.528;2022-08-19T07:58:19;22.50;76.20
64062;DHT22;50308;47.438;-1.528;2022-08-19T08:00:47;22.50;76.00
64062;DHT22;50308;47.438;-1.528;2022-08-19T08:03:16;22.50;76.30
64062;DHT22;50308;47.438;-1.528;2022-08-19T08:05:43;22.50;76.00
64062;DHT22;50308;47.438;-1.528;2022-08-19T08:08:28;22.50;76.60
64062;DHT22;50308;47.438;-1.528;2022-08-19T08:11:13;22.50;76.70
64062;DHT22;50308;47.438;-1.528;2022-08-19T08:13:39;22.50;76.50
64062;DHT22;50308;47.438;-1.528;2022-08-19T08:16:07;22.50;76.60
64062;DHT22;50308;47.438;-1.528;2022-08-19T08:18:33;22.50;76.30
64062;DHT22;50308;47.438;-1.528;2022-08-19T08:20:59;22.50;75.80
64062;DHT22;50308;47.438;-1.528;2022-08-19T08:23:26;22.50;76.60
64062;DHT22;50308;47.438;-1.528;2022-08-19T08:25:53;22.60;77.00
64062;DHT22;50308;47.438;-1.528;2022-08-19T08:28:20;22.50;76.90
64062;DHT22;50308;47.438;-1.528;2022-08-19T08:30:48;22.60;76.80
64062;DHT22;50308;47.438;-1.528;2022-08-19T08:33:19;22.60;76.90
64062;DHT22;50308;47.438;-1.528;2022-08-19T08:35:45;22.60;76.90
64062;DHT22;50308;47.438;-1.528;2022-08-19T08:38:11;22.60;76.20
64062;DHT22;50308;47.438;-1.528;2022-08-19T08:40:58;22.60;77.00
64062;DHT22;50308;47.438;-1.528;2022-08-19T08:43:38;22.60;77.00
64062;DHT22;50308;47.438;-1.528;2022-08-19T08:46:15;22.50;77.30
64062;DHT22;50308;47.438;-1.528;2022-08-19T08:48:54;22.50;76.90
64062;DHT22;50308;47.438;-1.528;2022-08-19T08:51:35;22.60;77.20
64062;DHT22;50308;47.438;-1.528;2022-08-19T08:54:04;22.60;77.30
64062;DHT22;50308;47.438;-1.528;2022-08-19T08:56:30;22.60;77.40
64062;DHT22;50308;47.438;-1.528;2022-08-19T08:59:36;22.60;77.10
64062;DHT22;50308;47.438;-1.528;2022-08-19T09:02:04;22.60;77.40
64062;DHT22;50308;47.438;-1.528;2022-08-19T09:04:35;22.60;77.50
64062;DHT22;50308;47.438;-1.528;2022-08-19T09:10:15;22.60;77.70
64062;DHT22;50308;47.438;-1.528;2022-08-19T09:12:53;22.60;77.80
64062;DHT22;50308;47.438;-1.528;2022-08-19T09:15:32;22.60;77.90
64062;DHT22;50308;47.438;-1.528;2022-08-19T09:18:04;22.70;78.80
64062;DHT22;50308;47.438;-1.528;2022-08-19T09:20:33;22.60;77.60
64062;DHT22;50308;47.438;-1.528;2022-08-19T09:23:00;22.70;78.90
64062;DHT22;50308;47.438;-1.528;2022-08-19T09:25:28;22.60;78.00
64062;DHT22;50308;47.438;-1.528;2022-08-19T09:27:57;22.70;76.80
64062;DHT22;50308;47.438;-1.528;2022-08-19T09:30:31;22.70;78.10
64062;DHT22;50308;47.438;-1.528;2022-08-19T09:32:59;22.70;77.60
64062;DHT22;50308;47.438;-1.528;2022-08-19T09:35:28;22.70;78.10
64062;DHT22;50308;47.438;-1.528;2022-08-19T09:37:57;22.60;76.20
64062;DHT22;50308;47.438;-1.528;2022-08-19T09:40:28;22.60;73.30
64062;DHT22;50308;47.438;-1.528;2022-08-19T09:42:56;22.70;77.20
64062;DHT22;50308;47.438;-1.528;2022-08-19T09:45:24;22.70;74.90
64062;DHT22;50308;47.438;-1.528;2022-08-19T09:47:52;22.70;77.20
64062;DHT22;50308;47.438;-1.528;2022-08-19T09:50:21;22.70;74.90
64062;DHT22;50308;47.438;-1.528;2022-08-19T09:52:50;22.70;76.90
64062;DHT22;50308;47.438;-1.528;2022-08-19T09:55:21;22.70;74.70
64062;DHT22;50308;47.438;-1.528;2022-08-19T09:57:49;22.70;76.30
64062;DHT22;50308;47.438;-1.528;2022-08-19T10:00:17;22.80;74.30
64062;DHT22;50308;47.438;-1.528;2022-08-19T10:02:44;22.70;74.90
64062;DHT22;50308;47.438;-1.528;2022-08-19T10:05:13;22.80;70.20
64062;DHT22;50308;47.438;-1.528;2022-08-19T10:07:57;22.80;70.50
64062;DHT22;50308;47.438;-1.528;2022-08-19T10:10:27;22.90;70.90
64062;DHT22;50308;47.438;-1.528;2022-08-19T10:12:52;22.80;70.50
64062;DHT22;50308;47.438;-1.528;2022-08-19T10:15:19;22.90;71.10
64062;DHT22;50308;47.438;-1.528;2022-08-19T10:17:46;22.90;72.10
64062;DHT22;50308;47.438;-1.528;2022-08-19T10:20:12;22.90;72.70
64062;DHT22;50308;47.438;-1.528;2022-08-19T10:22:38;22.90;70.50
64062;DHT22;50308;47.438;-1.528;2022-08-19T10:25:05;22.90;71.80
64062;DHT22;50308;47.438;-1.528;2022-08-19T10:27:31;22.90;72.30
64062;DHT22;50308;47.438;-1.528;2022-08-19T10:29:57;22.90;70.90
64062;DHT22;50308;47.438;-1.528;2022-08-19T10:32:23;22.90;70.50
64062;DHT22;50308;47.438;-1.528;2022-08-19T10:34:50;22.90;70.40
64062;DHT22;50308;47.438;-1.528;2022-08-19T10:37:17;22.90;71.70
64062;DHT22;50308;47.438;-1.528;2022-08-19T10:39:46;22.90;71.90
64062;DHT22;50308;47.438;-1.528;2022-08-19T10:42:15;22.90;72.20
64062;DHT22;50308;47.438;-1.528;2022-08-19T10:44:43;22.90;71.40
64062;DHT22;50308;47.438;-1.528;2022-08-19T10:47:12;23.00;72.00
64062;DHT22;50308;47.438;-1.528;2022-08-19T10:49:39;22.90;71.40
64062;DHT22;50308;47.438;-1.528;2022-08-19T10:52:26;23.00;72.00
64062;DHT22;50308;47.438;-1.528;2022-08-19T10:55:06;23.00;70.90
64062;DHT22;50308;47.438;-1.528;2022-08-19T10:57:54;23.00;71.10
64062;DHT22;50308;47.438;-1.528;2022-08-19T11:00:21;23.00;71.20
64062;DHT22;50308;47.438;-1.528;2022-08-19T11:02:50;23.00;71.70
64062;DHT22;50308;47.438;-1.528;2022-08-19T11:05:16;23.00;71.40
64062;DHT22;50308;47.438;-1.528;2022-08-19T11:07:43;23.00;71.40
64062;DHT22;50308;47.438;-1.528;2022-08-19T11:10:14;23.10;71.40
64062;DHT22;50308;47.438;-1.528;2022-08-19T11:12:42;23.10;70.80
64062;DHT22;50308;47.438;-1.528;2022-08-19T11:15:09;23.10;71.90
64062;DHT22;50308;47.438;-1.528;2022-08-19T11:17:40;23.10;72.00
64062;DHT22;50308;47.438;-1.528;2022-08-19T11:20:12;23.10;71.50
64062;DHT22;50308;47.438;-1.528;2022-08-19T11:22:40;23.00;69.90
64062;DHT22;50308;47.438;-1.528;2022-08-19T11:25:08;23.10;70.70
64062;DHT22;50308;47.438;-1.528;2022-08-19T11:27:40;23.10;72.00
64062;DHT22;50308;47.438;-1.528;2022-08-19T11:30:11;23.10;71.00
64062;DHT22;50308;47.438;-1.528;2022-08-19T11:32:42;23.10;70.90
64062;DHT22;50308;47.438;-1.528;2022-08-19T11:35:12;23.10;70.90
64062;DHT22;50308;47.438;-1.528;2022-08-19T11:37:39;23.10;70.80
64062;DHT22;50308;47.438;-1.528;2022-08-19T11:40:07;23.20;71.50
64062;DHT22;50308;47.438;-1.528;2022-08-19T11:42:34;23.20;71.60
64062;DHT22;50308;47.438;-1.528;2022-08-19T11:45:19;23.20;71.30
64062;DHT22;50308;47.438;-1.528;2022-08-19T11:47:47;23.30;70.80
64062;DHT22;50308;47.438;-1.528;2022-08-19T11:50:17;23.30;71.20
64062;DHT22;50308;47.438;-1.528;2022-08-19T11:52:45;23.30;70.90
64062;DHT22;50308;47.438;-1.528;2022-08-19T11:55:15;23.30;70.10
64062;DHT22;50308;47.438;-1.528;2022-08-19T11:57:43;23.20;70.60
64062;DHT22;50308;47.438;-1.528;2022-08-19T12:00:13;23.30;70.90
64062;DHT22;50308;47.438;-1.528;2022-08-19T12:02:42;23.30;70.10
64062;DHT22;50308;47.438;-1.528;2022-08-19T12:05:10;23.30;70.40
64062;DHT22;50308;47.438;-1.528;2022-08-19T12:07:39;23.30;70.60
64062;DHT22;50308;47.438;-1.528;2022-08-19T12:10:10;23.30;70.30
64062;DHT22;50308;47.438;-1.528;2022-08-19T12:12:39;23.30;70.40
64062;DHT22;50308;47.438;-1.528;2022-08-19T12:15:09;23.30;70.30
64062;DHT22;50308;47.438;-1.528;2022-08-19T12:17:37;23.40;70.60
64062;DHT22;50308;47.438;-1.528;2022-08-19T12:20:05;23.40;70.40
64062;DHT22;50308;47.438;-1.528;2022-08-19T12:22:31;23.50;70.30
64062;DHT22;50308;47.438;-1.528;2022-08-19T12:24:58;23.50;69.90
64062;DHT22;50308;47.438;-1.528;2022-08-19T12:27:30;23.50;70.30
64062;DHT22;50308;47.438;-1.528;2022-08-19T12:29:56;23.50;69.90
64062;DHT22;50308;47.438;-1.528;2022-08-19T12:32:26;23.40;69.80
64062;DHT22;50308;47.438;-1.528;2022-08-19T12:34:53;23.40;70.10
64062;DHT22;50308;47.438;-1.528;2022-08-19T12:37:21;23.40;70.00
64062;DHT22;50308;47.438;-1.528;2022-08-19T12:39:48;23.40;70.00
64062;DHT22;50308;47.438;-1.528;2022-08-19T12:42:15;23.40;69.80
64062;DHT22;50308;47.438;-1.528;2022-08-19T12:44:43;23.40;69.70
64062;DHT22;50308;47.438;-1.528;2022-08-19T12:47:12;23.40;70.00
64062;DHT22;50308;47.438;-1.528;2022-08-19T12:49:40;23.40;69.40
64062;DHT22;50308;47.438;-1.528;2022-08-19T12:52:08;23.40;69.40
64062;DHT22;50308;47.438;-1.528;2022-08-19T12:54:39;23.40;69.40
64062;DHT22;50308;47.438;-1.528;2022-08-19T12:57:10;23.40;69.90
64062;DHT22;50308;47.438;-1.528;2022-08-19T12:59:38;23.40;69.90
64062;DHT22;50308;47.438;-1.528;2022-08-19T13:02:06;23.40;69.70
64062;DHT22;50308;47.438;-1.528;2022-08-19T13:04:35;23.40;69.90
64062;DHT22;50308;47.438;-1.528;2022-08-19T13:07:03;23.40;70.00
64062;DHT22;50308;47.438;-1.528;2022-08-19T13:09:30;23.40;69.90
64062;DHT22;50308;47.438;-1.528;2022-08-19T13:11:57;23.40;69.80
64062;DHT22;50308;47.438;-1.528;2022-08-19T13:14:24;23.50;69.40
64062;DHT22;50308;47.438;-1.528;2022-08-19T13:16:52;23.40;69.80
64062;DHT22;50308;47.438;-1.528;2022-08-19T13:19:19;23.40;69.50
64062;DHT22;50308;47.438;-1.528;2022-08-19T13:21:50;23.40;70.00
64062;DHT22;50308;47.438;-1.528;2022-08-19T13:24:18;23.40;70.50
64062;DHT22;50308;47.438;-1.528;2022-08-19T13:26:45;23.40;70.00
64062;DHT22;50308;47.438;-1.528;2022-08-19T13:29:11;23.50;70.10
64062;DHT22;50308;47.438;-1.528;2022-08-19T13:31:56;23.50;70.30
64062;DHT22;50308;47.438;-1.528;2022-08-19T13:34:40;23.60;69.70
64062;DHT22;50308;47.438;-1.528;2022-08-19T13:37:06;23.60;69.80
64062;DHT22;50308;47.438;-1.528;2022-08-19T13:39:33;23.60;69.60
64062;DHT22;50308;47.438;-1.528;2022-08-19T13:41:59;23.60;69.30
64062;DHT22;50308;47.438;-1.528;2022-08-19T13:44:27;23.70;69.40
64062;DHT22;50308;47.438;-1.528;2022-08-19T13:46:59;23.70;69.10
64062;DHT22;50308;47.438;-1.528;2022-08-19T13:49:28;23.70;69.10
64062;DHT22;50308;47.438;-1.528;2022-08-19T13:51:55;23.70;69.10
64062;DHT22;50308;47.438;-1.528;2022-08-19T13:54:21;23.70;69.20
64062;DHT22;50308;47.438;-1.528;2022-08-19T13:56:47;23.60;69.10
64062;DHT22;50308;47.438;-1.528;2022-08-19T13:59:12;23.60;69.20
64062;DHT22;50308;47.438;-1.528;2022-08-19T14:01:39;23.70;69.20
64062;DHT22;50308;47.438;-1.528;2022-08-19T14:04:05;23.70;69.10
64062;DHT22;50308;47.438;-1.528;2022-08-19T14:06:31;23.70;68.90
64062;DHT22;50308;47.438;-1.528;2022-08-19T14:08:57;23.70;69.40
64062;DHT22;50308;47.438;-1.528;2022-08-19T14:11:23;23.70;69.10
64062;DHT22;50308;47.438;-1.528;2022-08-19T14:13:49;23.70;69.40
64062;DHT22;50308;47.438;-1.528;2022-08-19T14:16:15;23.70;69.40
64062;DHT22;50308;47.438;-1.528;2022-08-19T14:18:41;23.70;69.20
64062;DHT22;50308;47.438;-1.528;2022-08-19T14:21:08;23.60;69.00
64062;DHT22;50308;47.438;-1.528;2022-08-19T14:23:38;23.60;69.10
64062;DHT22;50308;47.438;-1.528;2022-08-19T14:26:15;23.70;69.90
64062;DHT22;50308;47.438;-1.528;2022-08-19T14:28:42;23.60;69.80
64062;DHT22;50308;47.438;-1.528;2022-08-19T14:31:12;23.70;69.70
64062;DHT22;50308;47.438;-1.528;2022-08-19T14:33:38;23.70;69.60
64062;DHT22;50308;47.438;-1.528;2022-08-19T14:36:06;23.70;69.70
64062;DHT22;50308;47.438;-1.528;2022-08-19T14:38:31;23.70;69.70
64062;DHT22;50308;47.438;-1.528;2022-08-19T14:43:35;23.70;69.70
64062;DHT22;50308;47.438;-1.528;2022-08-19T14:46:01;23.70;69.40
64062;DHT22;50308;47.438;-1.528;2022-08-19T14:48:27;23.60;69.30
64062;DHT22;50308;47.438;-1.528;2022-08-19T14:50:52;23.70;69.00
64062;DHT22;50308;47.438;-1.528;2022-08-19T14:53:18;23.60;68.80
64062;DHT22;50308;47.438;-1.528;2022-08-19T14:55:45;23.60;68.80
64062;DHT22;50308;47.438;-1.528;2022-08-19T14:58:12;23.60;68.60
64062;DHT22;50308;47.438;-1.528;2022-08-19T15:00:38;23.60;68.50
64062;DHT22;50308;47.438;-1.528;2022-08-19T15:03:04;23.50;68.60
64062;DHT22;50308;47.438;-1.528;2022-08-19T15:05:30;23.60;69.60
64062;DHT22;50308;47.438;-1.528;2022-08-19T15:07:55;23.60;68.60
64062;DHT22;50308;47.438;-1.528;2022-08-19T15:10:22;23.50;68.30
64062;DHT22;50308;47.438;-1.528;2022-08-19T15:12:50;23.60;68.30
64062;DHT22;50308;47.438;-1.528;2022-08-19T15:15:16;23.60;68.30
64062;DHT22;50308;47.438;-1.528;2022-08-19T15:17:47;23.60;68.30
64062;DHT22;50308;47.438;-1.528;2022-08-19T15:20:17;23.60;68.60
64062;DHT22;50308;47.438;-1.528;2022-08-19T15:22:43;23.60;68.30
64062;DHT22;50308;47.438;-1.528;2022-08-19T15:25:11;23.60;68.70
64062;DHT22;50308;47.438;-1.528;2022-08-19T15:27:37;23.60;68.10
64062;DHT22;50308;47.438;-1.528;2022-08-19T15:30:06;23.60;68.30
64062;DHT22;50308;47.438;-1.528;2022-08-19T15:32:32;23.70;68.50